Time;durP1;ratioP1;P1;durP2;ratioP2;P2;SDS_P1;SDS_P2;PMS_P1;PMS_P2;Temp;Humidity;BMP_temperature;BMP_pressure;BME280_temperature;BME280_humidity;BME280_pressure;Samples;Min_cycle;Max_cycle;Signal;HPM_P1;HPM_P2
2021/01/29 00:01:02;;;;;;;16.25;8.57;;;1.50;99.90;;;;;;5045398;28;20138;-75
2021/01/29 00:03:29;;;;;;;17.38;9.55;;;1.50;99.90;;;;;;5055042;28;20133;-74
2021/01/29 00:05:58;;;;;;;17.75;9.50;;;1.50;99.90;;;;;;5061341;28;20050;-74
2021/01/29 00:08:25;;;;;;;17.63;10.60;;;1.40;99.90;;;;;;5066964;28;20075;-74
2021/01/29 00:10:53;;;;;;;16.83;10.55;;;1.40;99.90;;;;;;5048890;28;20044;-75
2021/01/29 00:13:21;;;;;;;18.38;11.07;;;1.40;99.90;;;;;;5046749;28;20161;-74
2021/01/29 00:15:47;;;;;;;18.77;10.43;;;1.40;99.90;;;;;;5027039;28;20049;-74
2021/01/29 00:18:14;;;;;;;23.10;11.18;;;1.40;99.90;;;;;;5028950;28;20065;-74
2021/01/29 00:20:41;;;;;;;23.98;11.45;;;1.40;99.90;;;;;;5028799;28;20064;-74
2021/01/29 00:23:08;;;;;;;20.73;10.95;;;1.40;99.90;;;;;;5043427;28;20516;-74
2021/01/29 00:25:38;;;;;;;16.80;9.15;;;1.40;99.90;;;;;;5043767;28;20145;-75
2021/01/29 00:28:06;;;;;;;18.40;10.10;;;1.40;99.90;;;;;;5054038;28;20094;-74
2021/01/29 00:30:33;;;;;;;17.25;9.35;;;1.40;99.90;;;;;;5052444;28;20110;-74
2021/01/29 00:33:01;;;;;;;15.38;8.02;;;1.40;99.90;;;;;;5052907;28;20048;-74
2021/01/29 00:35:31;;;;;;;16.63;9.02;;;1.40;99.90;;;;;;5040007;28;20068;-74
2021/01/29 00:37:58;;;;;;;16.70;8.82;;;1.40;99.90;;;;;;5048230;28;20053;-73
2021/01/29 00:40:25;;;;;;;15.20;8.32;;;1.40;99.90;;;;;;5064651;28;20529;-73
2021/01/29 00:42:53;;;;;;;14.88;8.68;;;1.40;99.90;;;;;;5047499;28;20045;-74
2021/01/29 00:45:22;;;;;;;17.88;9.52;;;1.40;99.90;;;;;;5038249;28;20203;-75
2021/01/29 00:47:49;;;;;;;16.55;9.80;;;1.40;99.90;;;;;;5007767;28;20135;-75
2021/01/29 00:50:16;;;;;;;11.75;7.15;;;1.50;99.90;;;;;;5019259;28;20102;-74
2021/01/29 00:52:43;;;;;;;19.70;9.55;;;1.50;99.90;;;;;;5025091;28;20403;-74
2021/01/29 00:55:12;;;;;;;17.05;9.05;;;1.50;99.90;;;;;;5027126;28;20061;-74
2021/01/29 00:57:49;;;;;;;14.88;8.43;;;1.50;99.90;;;;;;5045007;28;20390;-74
2021/01/29 01:00:54;;;;;;;15.93;9.88;;;1.60;99.90;;;;;;5024014;28;20045;-75
2021/01/29 01:03:28;;;;;;;15.15;8.70;;;1.60;99.90;;;;;;5052760;28;20053;-74
2021/01/29 01:05:55;;;;;;;16.20;8.52;;;1.60;99.90;;;;;;5036287;28;20095;-74
2021/01/29 01:08:35;;;;;;;13.35;8.07;;;1.50;99.90;;;;;;5041361;28;20052;-75
2021/01/29 01:11:21;;;;;;;15.95;7.22;;;1.50;99.90;;;;;;5018525;28;20052;-75
2021/01/29 01:14:08;;;;;;;10.05;6.45;;;1.50;99.90;;;;;;5043698;28;20049;-74
2021/01/29 01:16:37;;;;;;;12.52;7.22;;;1.50;99.90;;;;;;5027581;28;20624;-74
2021/01/29 01:19:11;;;;;;;10.70;6.85;;;1.50;99.90;;;;;;5035878;28;20136;-76
2021/01/29 01:21:51;;;;;;;10.82;6.70;;;1.50;99.90;;;;;;5006114;28;20061;-74
2021/01/29 01:24:44;;;;;;;10.25;6.22;;;1.50;99.90;;;;;;4987120;28;20076;-74
2021/01/29 01:27:17;;;;;;;9.38;6.47;;;1.50;99.90;;;;;;5029712;28;20051;-73
2021/01/29 01:30:05;;;;;;;9.25;6.65;;;1.50;99.90;;;;;;5063948;28;20048;-73
2021/01/29 01:32:36;;;;;;;9.65;6.65;;;1.60;99.90;;;;;;5053433;28;20115;-74
2021/01/29 01:35:22;;;;;;;6.72;4.75;;;1.50;99.90;;;;;;5045144;28;20061;-74
2021/01/29 01:37:50;;;;;;;8.18;5.95;;;1.60;99.90;;;;;;5026771;28;20118;-73
2021/01/29 01:40:35;;;;;;;8.93;5.93;;;1.50;99.90;;;;;;5012111;28;20068;-74
2021/01/29 01:43:03;;;;;;;7.93;4.75;;;1.50;99.90;;;;;;5010093;28;20544;-73
2021/01/29 01:45:34;;;;;;;7.40;5.13;;;1.50;99.90;;;;;;5018569;28;20063;-74
2021/01/29 01:48:12;;;;;;;6.57;5.00;;;1.60;99.90;;;;;;5024858;28;20049;-75
2021/01/29 01:51:03;;;;;;;8.32;5.20;;;1.60;99.90;;;;;;5005383;28;20591;-75
2021/01/29 01:53:38;;;;;;;8.23;5.40;;;1.50;99.90;;;;;;5020555;28;20056;-75
2021/01/29 01:56:20;;;;;;;8.00;5.10;;;1.50;99.90;;;;;;5026467;28;20155;-75
2021/01/29 01:59:22;;;;;;;7.13;4.88;;;1.50;99.90;;;;;;5044293;28;20611;-74
2021/01/29 02:02:05;;;;;;;8.00;5.70;;;1.60;99.90;;;;;;5043310;28;20045;-74
2021/01/29 02:04:52;;;;;;;8.13;4.88;;;1.60;99.90;;;;;;5055046;28;20082;-74
2021/01/29 02:07:55;;;;;;;8.18;6.40;;;1.60;99.90;;;;;;5009499;28;20553;-74
2021/01/29 02:10:41;;;;;;;7.00;4.90;;;1.60;99.90;;;;;;5044591;28;20128;-74
2021/01/29 02:13:11;;;;;;;9.35;6.68;;;1.50;99.90;;;;;;5026377;28;20057;-74
2021/01/29 02:15:44;;;;;;;10.45;6.20;;;1.60;99.90;;;;;;5025585;28;20052;-73
2021/01/29 02:18:49;;;;;;;9.15;6.10;;;1.60;99.90;;;;;;5029523;28;20153;-74
2021/01/29 02:21:45;;;;;;;9.15;6.72;;;1.70;99.90;;;;;;4992950;28;20045;-74
2021/01/29 02:24:40;;;;;;;10.13;6.82;;;1.60;99.90;;;;;;5012399;28;20077;-74
2021/01/29 02:27:45;;;;;;;9.98;6.55;;;1.60;99.90;;;;;;5032299;28;20051;-73
2021/01/29 02:30:53;;;;;;;10.65;7.03;;;1.60;99.90;;;;;;5032043;28;20081;-73
2021/01/29 02:33:47;;;;;;;12.15;7.10;;;1.60;99.90;;;;;;5038479;28;20029;-75
2021/01/29 02:36:44;;;;;;;9.90;6.13;;;1.60;99.90;;;;;;5045384;28;20045;-74
2021/01/29 02:39:45;;;;;;;11.25;7.47;;;1.60;99.90;;;;;;5045547;28;20045;-73
2021/01/29 02:42:54;;;;;;;9.07;6.60;;;1.60;99.90;;;;;;5025597;28;20045;-73
2021/01/29 02:45:55;;;;;;;11.43;7.65;;;1.60;99.90;;;;;;5005529;28;20041;-74
2021/01/29 02:48:52;;;;;;;11.60;7.28;;;1.60;99.90;;;;;;5042997;28;20057;-74
2021/01/29 02:52:02;;;;;;;9.68;6.65;;;1.60;99.90;;;;;;5042521;28;20104;-75
2021/01/29 02:55:30;;;;;;;10.60;6.47;;;1.60;99.90;;;;;;5029612;28;20080;-75
2021/01/29 02:58:24;;;;;;;9.98;7.05;;;1.60;99.90;;;;;;5025526;28;20040;-74
2021/01/29 03:01:06;;;;;;;11.25;7.55;;;1.60;99.90;;;;;;5040103;28;20459;-75
2021/01/29 03:03:55;;;;;;;11.63;6.88;;;1.60;99.90;;;;;;5048893;28;20134;-75
2021/01/29 03:06:46;;;;;;;11.55;7.63;;;1.60;99.90;;;;;;5057805;28;20556;-74
2021/01/29 03:09:43;;;;;;;15.15;7.80;;;1.70;99.90;;;;;;5061713;28;20724;-74
2021/01/29 03:12:54;;;;;;;9.52;5.93;;;1.70;99.90;;;;;;4977539;28;20405;-73
2021/01/29 03:15:50;;;;;;;8.35;5.90;;;1.70;99.90;;;;;;5025699;28;20136;-74
2021/01/29 03:18:47;;;;;;;9.73;6.00;;;1.70;99.90;;;;;;5028944;28;20060;-73
2021/01/29 03:21:39;;;;;;;8.65;6.00;;;1.70;99.90;;;;;;5026239;28;20073;-74
2021/01/29 03:24:54;;;;;;;8.30;6.72;;;1.80;99.90;;;;;;5002892;28;20116;-74
2021/01/29 03:27:44;;;;;;;8.85;6.53;;;1.70;99.90;;;;;;5019300;28;20205;-73
2021/01/29 03:30:34;;;;;;;10.93;6.10;;;1.70;99.90;;;;;;5039987;28;20144;-74
2021/01/29 03:33:23;;;;;;;11.10;7.03;;;1.80;99.90;;;;;;5048625;28;20160;-73
2021/01/29 03:36:18;;;;;;;9.20;6.82;;;1.80;99.90;;;;;;5056271;28;20041;-74
2021/01/29 03:39:14;;;;;;;13.45;7.85;;;1.90;99.90;;;;;;5045946;28;20077;-74
2021/01/29 03:42:32;;;;;;;12.35;7.82;;;1.90;99.90;;;;;;5030713;28;20049;-73
2021/01/29 03:45:39;;;;;;;12.05;7.72;;;2.00;99.90;;;;;;5039675;28;20116;-73
2021/01/29 03:48:50;;;;;;;13.35;8.27;;;2.00;99.90;;;;;;5025517;28;20049;-75
2021/01/29 03:51:56;;;;;;;14.23;9.05;;;2.00;99.90;;;;;;5024272;28;20049;-73
2021/01/29 03:55:18;;;;;;;14.18;9.02;;;2.00;99.90;;;;;;5026740;28;20492;-73
2021/01/29 03:58:27;;;;;;;13.45;8.63;;;1.90;99.90;;;;;;5039851;28;20045;-74
2021/01/29 04:01:38;;;;;;;14.18;9.65;;;1.80;99.90;;;;;;5025892;28;20053;-73
2021/01/29 04:04:34;;;;;;;13.88;8.88;;;1.90;99.90;;;;;;5053481;28;20045;-73
2021/01/29 04:07:38;;;;;;;13.20;7.82;;;1.90;99.90;;;;;;5026404;28;20052;-73
2021/01/29 04:10:28;;;;;;;12.75;8.82;;;1.80;99.90;;;;;;5045675;28;20094;-74
2021/01/29 04:13:38;;;;;;;17.40;9.48;;;1.90;99.90;;;;;;5046156;28;20053;-73
2021/01/29 04:16:14;;;;;;;14.40;8.35;;;1.90;99.90;;;;;;5027470;28;20076;-73
2021/01/29 04:18:56;;;;;;;14.43;9.57;;;1.90;99.90;;;;;;5044405;28;20065;-74
2021/01/29 04:21:33;;;;;;;11.57;7.30;;;1.90;99.90;;;;;;5028172;28;20057;-73
2021/01/29 04:24:15;;;;;;;14.68;9.48;;;1.80;99.90;;;;;;5044743;28;20065;-73
2021/01/29 04:26:52;;;;;;;15.02;9.00;;;1.80;99.90;;;;;;5048153;28;20503;-73
2021/01/29 04:29:32;;;;;;;17.45;10.20;;;1.90;99.90;;;;;;5053196;28;20048;-73
2021/01/29 04:32:04;;;;;;;17.42;9.40;;;1.80;99.90;;;;;;5048708;28;20045;-73
2021/01/29 04:34:36;;;;;;;16.30;9.38;;;1.90;99.90;;;;;;5046751;28;20639;-73
2021/01/29 04:37:12;;;;;;;17.88;9.75;;;2.00;99.90;;;;;;5063974;28;20423;-73
2021/01/29 04:39:43;;;;;;;18.05;10.25;;;2.00;99.90;;;;;;5047498;28;20046;-72
2021/01/29 04:42:25;;;;;;;18.35;11.00;;;2.00;99.90;;;;;;5007106;28;20060;-72
2021/01/29 04:45:13;;;;;;;16.95;10.73;;;1.90;99.90;;;;;;5010372;28;20145;-72
2021/01/29 04:47:47;;;;;;;14.40;8.23;;;1.90;99.90;;;;;;4988159;28;20085;-72
2021/01/29 04:50:29;;;;;;;18.35;10.70;;;1.90;99.90;;;;;;4988586;28;20416;-73
2021/01/29 04:53:42;;;;;;;15.95;9.32;;;1.90;99.90;;;;;;5023596;28;20089;-72
2021/01/29 04:56:21;;;;;;;18.60;10.32;;;1.90;99.90;;;;;;5024400;28;20190;-72
2021/01/29 04:59:08;;;;;;;21.38;10.68;;;2.00;99.90;;;;;;5026974;28;20129;-72
2021/01/29 05:02:28;;;;;;;16.90;9.23;;;2.00;99.90;;;;;;5038869;28;20053;-71
2021/01/29 05:05:46;;;;;;;17.73;10.40;;;1.90;99.90;;;;;;4958561;28;20046;-72
2021/01/29 05:09:10;;;;;;;15.23;9.98;;;2.00;99.90;;;;;;5025002;28;20057;-73
2021/01/29 05:12:09;;;;;;;18.30;10.23;;;2.00;99.90;;;;;;5026653;28;20244;-71
2021/01/29 05:15:11;;;;;;;15.65;10.00;;;2.10;99.90;;;;;;5045084;28;20390;-71
2021/01/29 05:18:16;;;;;;;17.88;9.50;;;2.10;99.90;;;;;;5027621;28;20178;-71
2021/01/29 05:20:56;;;;;;;17.95;10.38;;;2.00;99.90;;;;;;5026339;28;20045;-72
2021/01/29 05:23:31;;;;;;;14.63;8.80;;;2.10;99.90;;;;;;5026032;28;20055;-72
2021/01/29 05:26:25;;;;;;;18.45;9.85;;;2.00;99.90;;;;;;5025354;28;20036;-73
2021/01/29 05:29:04;;;;;;;14.80;8.73;;;2.00;99.90;;;;;;5051546;28;20060;-72
2021/01/29 05:32:02;;;;;;;16.17;9.10;;;1.90;99.90;;;;;;5043407;28;20059;-71
2021/01/29 05:35:04;;;;;;;18.08;9.52;;;1.90;99.90;;;;;;5025466;28;20029;-73
2021/01/29 05:37:48;;;;;;;15.93;9.15;;;1.90;99.90;;;;;;5010109;28;20049;-72
2021/01/29 05:40:45;;;;;;;18.30;9.70;;;1.90;99.90;;;;;;5044109;28;20418;-72
2021/01/29 05:43:43;;;;;;;14.02;7.30;;;1.90;99.90;;;;;;5041795;28;20125;-72
2021/01/29 05:46:21;;;;;;;14.15;8.00;;;1.90;99.90;;;;;;5005528;28;20049;-72
2021/01/29 05:49:25;;;;;;;16.27;8.40;;;1.90;99.90;;;;;;5023138;28;20073;-72
2021/01/29 05:52:46;;;;;;;14.18;8.25;;;1.90;99.90;;;;;;5005392;28;20041;-72
2021/01/29 05:55:49;;;;;;;11.25;5.63;;;1.90;99.90;;;;;;4960666;28;20165;-73
2021/01/29 05:58:30;;;;;;;10.38;6.20;;;1.90;99.90;;;;;;5025710;28;20499;-73
2021/01/29 06:00:59;;;;;;;10.10;6.70;;;2.00;99.90;;;;;;5044084;28;20118;-73
2021/01/29 06:03:44;;;;;;;12.85;7.60;;;1.90;99.90;;;;;;5050054;28;20052;-74
2021/01/29 06:06:30;;;;;;;;;;;2.00;99.90;;;;;;5061572;28;20151;-73
2021/01/29 06:09:21;;;;;;;9.98;6.90;;;2.00;99.90;;;;;;5064060;28;20376;-74
2021/01/29 06:12:12;;;;;;;9.50;6.75;;;2.00;99.90;;;;;;5028287;28;20056;-74
2021/01/29 06:15:04;;;;;;;8.43;6.28;;;2.00;99.90;;;;;;5042005;28;20156;-73
2021/01/29 06:17:42;;;;;;;8.73;6.00;;;2.00;99.90;;;;;;5042738;28;20049;-73
2021/01/29 06:20:45;;;;;;;11.45;6.47;;;2.00;99.90;;;;;;5042001;28;20077;-73
2021/01/29 06:23:18;;;;;;;8.52;6.20;;;2.10;99.90;;;;;;5025525;28;20075;-74
2021/01/29 06:26:17;;;;;;;7.60;5.45;;;2.00;99.90;;;;;;5022632;28;20585;-73
2021/01/29 06:29:05;;;;;;;6.90;5.07;;;2.00;99.90;;;;;;4995734;28;20042;-73
2021/01/29 06:32:09;;;;;;;9.13;5.60;;;2.00;99.90;;;;;;5032157;28;20565;-73
2021/01/29 06:35:21;;;;;;;5.38;4.63;;;2.00;99.90;;;;;;5041579;28;20106;-74
2021/01/29 06:37:54;;;;;;;6.25;3.78;;;2.00;99.90;;;;;;4940053;28;20457;-74
2021/01/29 06:40:32;;;;;;;8.93;5.03;;;2.10;99.90;;;;;;5026659;28;20071;-73
2021/01/29 06:43:32;;;;;;;9.13;6.68;;;2.10;99.90;;;;;;5038671;28;20060;-74
2021/01/29 06:46:16;;;;;;;6.22;4.65;;;2.10;99.90;;;;;;5031859;28;20526;-74
2021/01/29 06:49:05;;;;;;;6.15;4.13;;;2.10;99.90;;;;;;5010466;28;20124;-73
2021/01/29 06:51:50;;;;;;;8.82;4.88;;;2.20;99.90;;;;;;5024913;28;20057;-74
2021/01/29 06:55:01;;;;;;;6.00;4.38;;;2.20;99.90;;;;;;5012921;28;20046;-74
2021/01/29 06:57:31;;;;;;;6.05;4.18;;;2.30;99.90;;;;;;5017854;28;20053;-73
2021/01/29 07:00:39;;;;;;;5.97;4.03;;;2.30;99.90;;;;;;5034299;28;20055;-73
2021/01/29 07:03:24;;;;;;;4.68;3.60;;;2.30;99.90;;;;;;5035396;28;20056;-73
2021/01/29 07:06:16;;;;;;;6.53;4.72;;;2.30;99.90;;;;;;5020680;28;20720;-74
2021/01/29 07:09:20;;;;;;;5.20;4.28;;;2.40;99.90;;;;;;4999492;28;20077;-74
2021/01/29 07:12:23;;;;;;;5.97;4.70;;;2.40;99.90;;;;;;5026563;28;20725;-74
2021/01/29 07:14:56;;;;;;;5.97;3.92;;;2.40;99.90;;;;;;5042214;28;20064;-75
2021/01/29 07:17:44;;;;;;;7.35;4.65;;;2.40;99.90;;;;;;5029427;28;20084;-73
2021/01/29 07:20:28;;;;;;;6.43;4.38;;;2.30;99.90;;;;;;5041002;28;20204;-72
2021/01/29 07:23:35;;;;;;;5.13;3.55;;;2.30;99.90;;;;;;5022987;28;20124;-73
2021/01/29 07:26:13;;;;;;;;;;;2.40;99.90;;;;;;5018451;28;20107;-74
2021/01/29 07:29:03;;;;;;;5.50;3.60;;;2.40;99.90;;;;;;5044112;28;20531;-74
2021/01/29 07:31:50;;;;;;;6.55;3.95;;;2.40;99.90;;;;;;5062030;28;20060;-74
2021/01/29 07:34:40;;;;;;;7.38;4.82;;;2.50;99.90;;;;;;5050346;28;20057;-73
2021/01/29 07:37:44;;;;;;;6.38;4.50;;;2.50;99.90;;;;;;5066806;28;20050;-74
2021/01/29 07:40:54;;;;;;;6.65;4.68;;;2.50;99.90;;;;;;5025098;28;20164;-74
2021/01/29 07:43:25;;;;;;;7.00;5.05;;;2.40;99.90;;;;;;5046235;28;20060;-73
2021/01/29 07:46:03;;;;;;;5.22;4.10;;;2.40;99.90;;;;;;5047418;28;20045;-74
2021/01/29 07:48:38;;;;;;;6.78;4.03;;;2.40;99.90;;;;;;5039912;28;20576;-74
2021/01/29 07:51:11;;;;;;;9.50;4.80;;;2.40;99.90;;;;;;5044364;28;20502;-75
2021/01/29 07:53:37;;;;;;;6.50;4.68;;;2.40;99.90;;;;;;5028488;28;20111;-74
2021/01/29 07:56:29;;;;;;;5.35;3.95;;;2.30;99.90;;;;;;5027519;28;20060;-74
2021/01/29 07:59:04;;;;;;;6.75;4.18;;;2.30;99.90;;;;;;5026352;28;20684;-75
2021/01/29 08:01:36;;;;;;;6.03;4.05;;;2.40;99.90;;;;;;5043726;28;20168;-76
2021/01/29 08:04:22;;;;;;;7.07;5.50;;;2.40;99.90;;;;;;5054551;28;20423;-75
2021/01/29 08:06:54;;;;;;;;;;;2.40;99.90;;;;;;5066148;28;20052;-75
2021/01/29 08:09:32;;;;;;;7.28;4.22;;;2.40;99.90;;;;;;5065366;28;19920;-74
2021/01/29 08:12:04;;;;;;;5.88;4.22;;;2.40;99.90;;;;;;5026368;28;20111;-75
2021/01/29 08:14:47;;;;;;;6.25;4.20;;;2.50;99.90;;;;;;5008702;28;20531;-75
2021/01/29 08:17:51;;;;;;;7.15;5.00;;;2.70;99.90;;;;;;5025925;28;20091;-75
2021/01/29 08:20:53;;;;;;;7.90;5.95;;;2.50;99.90;;;;;;5016901;28;20453;-75
2021/01/29 08:23:35;;;;;;;8.57;6.28;;;2.60;99.90;;;;;;5023377;28;20044;-75
2021/01/29 08:26:39;;;;;;;6.55;5.43;;;2.50;99.90;;;;;;5026578;28;20059;-76
2021/01/29 08:29:39;;;;;;;6.10;4.85;;;2.50;99.90;;;;;;5032154;28;20548;-75
2021/01/29 08:33:12;;;;;;;4.95;4.22;;;2.50;99.90;;;;;;5045872;28;20513;-74
2021/01/29 08:35:48;;;;;;;4.85;4.35;;;2.40;99.90;;;;;;5035516;28;20047;-75
2021/01/29 08:38:44;;;;;;;4.45;4.05;;;2.50;99.90;;;;;;5059071;28;20063;-75
2021/01/29 08:41:39;;;;;;;4.63;4.25;;;2.50;99.90;;;;;;5028135;28;20045;-74
2021/01/29 08:44:15;;;;;;;4.72;4.32;;;2.50;99.90;;;;;;5027569;28;20468;-73
2021/01/29 08:47:03;;;;;;;5.72;4.95;;;2.60;99.90;;;;;;5026671;28;20053;-73
2021/01/29 08:49:45;;;;;;;5.35;4.85;;;2.60;99.90;;;;;;5040043;28;20048;-75
2021/01/29 08:52:24;;;;;;;6.40;4.60;;;2.70;99.90;;;;;;5044889;28;20419;-73
2021/01/29 08:55:21;;;;;;;6.57;5.07;;;2.70;99.90;;;;;;5042639;28;20052;-74
2021/01/29 08:58:11;;;;;;;6.05;4.97;;;2.70;99.90;;;;;;5054014;28;20052;-73
2021/01/29 09:00:41;;;;;;;6.75;4.88;;;2.80;99.90;;;;;;5044336;28;20047;-73
2021/01/29 09:03:23;;;;;;;7.25;5.88;;;2.80;99.90;;;;;;5023143;28;20049;-73
2021/01/29 09:06:03;;;;;;;5.47;4.93;;;2.90;99.90;;;;;;5044539;28;20041;-74
2021/01/29 09:08:31;;;;;;;6.85;5.88;;;2.90;99.90;;;;;;5035249;28;20071;-74
2021/01/29 09:11:20;;;;;;;6.63;5.80;;;2.90;99.90;;;;;;5056203;28;20140;-73
2021/01/29 09:13:57;;;;;;;6.88;5.85;;;3.00;99.90;;;;;;5064029;28;20083;-73
2021/01/29 09:16:31;;;;;;;4.82;4.32;;;3.00;99.90;;;;;;5045752;28;20052;-73
2021/01/29 09:19:24;;;;;;;;;;;3.00;99.90;;;;;;5055762;28;20145;-77
2021/01/29 09:22:12;;;;;;;10.52;7.50;;;3.10;99.90;;;;;;5013235;28;20011;-76
2021/01/29 09:24:56;;;;;;;22.45;17.23;;;3.10;99.90;;;;;;5044486;28;20045;-77
2021/01/29 09:27:25;;;;;;;7.63;5.95;;;3.00;99.90;;;;;;5023792;28;20068;-76
2021/01/29 09:30:05;;;;;;;5.43;4.93;;;3.10;99.90;;;;;;5044060;28;20041;-78
2021/01/29 09:32:57;;;;;;;6.57;5.43;;;3.20;99.90;;;;;;5026968;28;20076;-78
2021/01/29 09:35:41;;;;;;;7.57;6.78;;;3.10;99.90;;;;;;5035888;28;20053;-78
2021/01/29 09:38:13;;;;;;;7.55;6.75;;;3.10;99.90;;;;;;5011991;28;20374;-78
2021/01/29 09:40:54;;;;;;;6.55;5.05;;;3.10;99.90;;;;;;5012864;28;20141;-78
2021/01/29 09:43:59;;;;;;;7.03;4.68;;;3.20;99.90;;;;;;5013295;28;20356;-78
2021/01/29 09:46:30;;;;;;;5.55;4.43;;;3.10;99.90;;;;;;5044758;28;20055;-78
2021/01/29 09:49:08;;;;;;;5.95;4.90;;;3.20;99.90;;;;;;5024218;28;20052;-77
2021/01/29 09:51:56;;;;;;;6.15;5.55;;;3.20;99.90;;;;;;4994471;28;20068;-77
2021/01/29 09:54:33;;;;;;;3.92;3.55;;;3.10;99.90;;;;;;5012061;28;20393;-78
2021/01/29 09:57:09;;;;;;;7.13;4.47;;;3.10;99.90;;;;;;5011545;28;20060;-77
2021/01/29 09:59:51;;;;;;;5.65;4.28;;;3.10;99.90;;;;;;5011735;28;20064;-77
2021/01/29 10:02:22;;;;;;;7.38;5.60;;;3.20;99.90;;;;;;5027241;28;20753;-76
2021/01/29 10:05:10;;;;;;;5.75;4.30;;;3.60;99.90;;;;;;5027214;28;20041;-75
2021/01/29 10:07:42;;;;;;;8.85;6.78;;;4.00;99.90;;;;;;5041058;28;20148;-75
2021/01/29 10:10:23;;;;;;;10.57;7.00;;;4.20;99.90;;;;;;5036084;28;20056;-76
2021/01/29 10:13:00;;;;;;;11.65;7.70;;;4.40;99.90;;;;;;5049226;28;20041;-76
2021/01/29 10:15:34;;;;;;;11.55;7.88;;;4.70;99.90;;;;;;5047876;28;20716;-76
2021/01/29 10:18:04;;;;;;;15.80;8.48;;;4.80;99.90;;;;;;5050150;28;20107;-76
2021/01/29 10:20:34;;;;;;;12.48;8.13;;;5.00;99.90;;;;;;5028835;28;20400;-76
2021/01/29 10:23:04;;;;;;;13.20;7.95;;;5.30;99.90;;;;;;5045400;28;20120;-76
2021/01/29 10:25:38;;;;;;;10.93;7.60;;;5.60;99.90;;;;;;5028278;28;20053;-76
2021/01/29 10:28:54;;;;;;;10.30;6.68;;;5.90;99.90;;;;;;5029591;28;20049;-75
2021/01/29 10:31:23;;;;;;;10.02;6.10;;;6.00;99.90;;;;;;4993592;28;20073;-75
2021/01/29 10:34:18;;;;;;;9.45;7.10;;;6.00;99.90;;;;;;5036071;28;20122;-75
2021/01/29 10:36:45;;;;;;;10.57;6.65;;;6.20;99.90;;;;;;4998668;28;20534;-75
2021/01/29 10:39:22;;;;;;;13.25;8.07;;;6.20;99.90;;;;;;5009138;28;20117;-76
2021/01/29 10:42:09;;;;;;;13.20;7.53;;;6.20;99.90;;;;;;5007215;28;20108;-74
2021/01/29 10:44:37;;;;;;;9.38;6.78;;;6.30;99.90;;;;;;5008983;28;20049;-73
2021/01/29 10:47:25;;;;;;;10.00;6.57;;;6.30;99.90;;;;;;5040915;28;20068;-74
2021/01/29 10:49:59;;;;;;;13.35;6.80;;;6.40;99.90;;;;;;5046357;28;20072;-73
2021/01/29 10:52:59;;;;;;;11.85;8.38;;;6.50;99.90;;;;;;5030760;28;20049;-74
2021/01/29 10:55:28;;;;;;;13.07;7.88;;;6.50;99.90;;;;;;5034873;28;20132;-74
2021/01/29 10:58:32;;;;;;;12.80;7.45;;;6.50;99.90;;;;;;5029404;28;20474;-74
2021/01/29 11:01:02;;;;;;;14.88;7.32;;;6.50;99.90;;;;;;5048193;28;20055;-75
2021/01/29 11:03:56;;;;;;;9.88;6.45;;;6.60;99.90;;;;;;5033039;28;20041;-75
2021/01/29 11:06:38;;;;;;;7.28;5.82;;;6.60;99.90;;;;;;5029958;28;20636;-75
2021/01/29 11:09:13;;;;;;;11.50;7.85;;;6.60;99.90;;;;;;5063411;28;20400;-74
2021/01/29 11:11:44;;;;;;;;;;;6.70;99.90;;;;;;5063302;28;20068;-75
2021/01/29 11:14:38;;;;;;;10.52;6.43;;;6.70;99.90;;;;;;5042993;28;19932;-75
2021/01/29 11:17:39;;;;;;;12.38;7.85;;;6.70;99.90;;;;;;5031851;28;20048;-75
2021/01/29 11:20:25;;;;;;;12.20;7.03;;;6.70;99.90;;;;;;5033711;28;20143;-75
2021/01/29 11:23:10;;;;;;;17.48;11.05;;;6.70;99.90;;;;;;5036906;28;20044;-75
2021/01/29 11:25:45;;;;;;;10.32;7.20;;;6.70;99.90;;;;;;5035756;28;20048;-74
2021/01/29 11:28:28;;;;;;;19.77;9.10;;;6.70;99.90;;;;;;5060516;28;20059;-75
2021/01/29 11:31:09;;;;;;;10.48;6.80;;;6.80;99.90;;;;;;5057890;28;20051;-74
2021/01/29 11:33:41;;;;;;;15.35;8.77;;;6.70;99.90;;;;;;5035348;28;20507;-74
2021/01/29 11:36:31;;;;;;;16.05;10.32;;;6.70;99.90;;;;;;5028645;28;20065;-74
2021/01/29 11:39:09;;;;;;;13.48;8.00;;;6.80;99.90;;;;;;5029199;28;20057;-75
2021/01/29 11:41:51;;;;;;;7.88;4.78;;;6.80;99.90;;;;;;5037056;28;20401;-74
2021/01/29 11:44:26;;;;;;;14.45;8.98;;;6.90;99.90;;;;;;5034889;28;20041;-75
2021/01/29 11:46:59;;;;;;;10.55;5.10;;;6.90;99.90;;;;;;5029069;28;20057;-75
2021/01/29 11:49:31;;;;;;;13.35;9.05;;;6.90;99.90;;;;;;5046193;28;20052;-75
2021/01/29 11:52:26;;;;;;;18.05;10.73;;;7.00;99.90;;;;;;5039273;28;20460;-75
2021/01/29 11:55:19;;;;;;;18.67;11.43;;;7.00;99.90;;;;;;5046615;28;20073;-74
2021/01/29 11:57:58;;;;;;;13.32;8.98;;;7.00;99.90;;;;;;5040731;28;20063;-74
2021/01/29 12:00:37;;;;;;;16.13;11.40;;;7.00;99.90;;;;;;5045371;28;20052;-75
2021/01/29 12:03:06;;;;;;;17.77;11.95;;;7.10;99.90;;;;;;5031963;28;20041;-75
2021/01/29 12:05:48;;;;;;;20.65;12.90;;;7.00;99.90;;;;;;5047752;28;20155;-74
2021/01/29 12:08:32;;;;;;;22.35;13.90;;;7.00;99.90;;;;;;5047683;28;20419;-75
2021/01/29 12:11:37;;;;;;;24.05;13.52;;;7.00;99.90;;;;;;5045072;28;20052;-74
2021/01/29 12:14:42;;;;;;;16.90;11.40;;;7.00;99.90;;;;;;5031017;28;20143;-74
2021/01/29 12:17:11;;;;;;;23.55;15.07;;;7.00;99.90;;;;;;5041675;28;20045;-75
2021/01/29 12:19:43;;;;;;;19.52;8.75;;;7.00;99.90;;;;;;5017716;28;20175;-75
2021/01/29 12:22:28;;;;;;;15.38;9.90;;;7.00;99.90;;;;;;5028470;28;20053;-75
2021/01/29 12:25:17;;;;;;;22.52;12.48;;;7.00;99.90;;;;;;5031682;28;20042;-74
2021/01/29 12:27:50;;;;;;;23.13;13.82;;;7.00;99.90;;;;;;5012409;28;20067;-75
2021/01/29 12:30:38;;;;;;;20.00;10.95;;;7.00;99.90;;;;;;5028176;28;20052;-75
2021/01/29 12:33:11;;;;;;;25.65;11.70;;;7.00;99.90;;;;;;5027731;28;20042;-75
2021/01/29 12:36:00;;;;;;;21.75;11.65;;;7.00;99.90;;;;;;5027762;28;20124;-74
2021/01/29 12:38:30;;;;;;;20.85;11.45;;;7.00;99.90;;;;;;5028919;28;20045;-74
2021/01/29 12:41:18;;;;;;;25.10;11.65;;;7.00;99.90;;;;;;5037007;28;20570;-75
2021/01/29 12:44:15;;;;;;;27.48;13.23;;;7.00;99.90;;;;;;5023260;28;20095;-75
2021/01/29 12:46:53;;;;;;;31.25;13.98;;;7.00;99.90;;;;;;5040377;28;20045;-73
2021/01/29 12:49:44;;;;;;;28.58;11.95;;;7.00;99.90;;;;;;5017037;28;20068;-74
2021/01/29 12:52:38;;;;;;;29.20;12.60;;;7.00;99.90;;;;;;5025275;28;20053;-74
2021/01/29 12:55:04;;;;;;;23.48;12.88;;;7.00;99.90;;;;;;5027885;28;20527;-74
2021/01/29 12:57:32;;;;;;;22.15;10.40;;;7.00;99.90;;;;;;5025500;28;20057;-75
2021/01/29 13:00:08;;;;;;;23.83;12.05;;;7.00;99.90;;;;;;5056463;28;20057;-75
2021/01/29 13:03:11;;;;;;;18.55;10.38;;;7.00;99.90;;;;;;5044258;28;20067;-73
2021/01/29 13:05:49;;;;;;;29.63;15.07;;;7.00;99.90;;;;;;5005623;28;20048;-74
2021/01/29 13:08:34;;;;;;;28.40;13.45;;;7.00;99.90;;;;;;5033750;28;20114;-74
2021/01/29 13:11:38;;;;;;;32.25;15.85;;;6.90;99.90;;;;;;5049366;28;20078;-74
2021/01/29 13:14:33;;;;;;;30.70;14.13;;;6.90;99.90;;;;;;5047221;28;20057;-75
2021/01/29 13:17:25;;;;;;;33.17;14.15;;;6.90;99.90;;;;;;5041547;28;20052;-74
2021/01/29 13:20:04;;;;;;;32.78;13.35;;;6.90;99.90;;;;;;5014210;28;20246;-75
2021/01/29 13:22:40;;;;;;;37.47;10.77;;;6.90;99.90;;;;;;5027118;28;20434;-73
2021/01/29 13:25:09;;;;;;;30.83;9.93;;;6.90;99.90;;;;;;5044182;28;20044;-74
2021/01/29 13:27:42;;;;;;;24.23;9.07;;;7.00;99.90;;;;;;5044484;28;20082;-74
2021/01/29 13:30:33;;;;;;;25.02;8.57;;;7.00;99.90;;;;;;5044549;28;20159;-73
2021/01/29 13:33:19;;;;;;;24.55;8.20;;;7.10;99.90;;;;;;5047305;28;20080;-74
2021/01/29 13:35:49;;;;;;;20.95;7.00;;;7.10;99.90;;;;;;5041277;28;20513;-74
2021/01/29 13:38:32;;;;;;;27.10;8.95;;;7.10;99.90;;;;;;5047753;28;20053;-74
2021/01/29 13:41:12;;;;;;;23.30;7.18;;;7.20;99.90;;;;;;5049394;28;20075;-74
2021/01/29 13:43:43;;;;;;;20.08;8.18;;;7.20;99.90;;;;;;5044481;28;20041;-74
2021/01/29 13:46:34;;;;;;;20.80;7.65;;;7.20;99.90;;;;;;5031459;28;20126;-73
2021/01/29 13:49:28;;;;;;;24.70;8.90;;;7.20;99.90;;;;;;5024822;28;20053;-74
2021/01/29 13:51:55;;;;;;;19.48;8.10;;;7.30;99.90;;;;;;5006494;28;20046;-74
2021/01/29 13:54:35;;;;;;;21.33;7.95;;;7.30;99.90;;;;;;5008070;28;20076;-72
2021/01/29 13:57:14;;;;;;;31.55;7.60;;;7.30;99.90;;;;;;5024410;28;20048;-72
2021/01/29 13:59:51;;;;;;;33.05;7.07;;;7.30;99.90;;;;;;5043347;28;20057;-73
2021/01/29 14:02:47;;;;;;;15.52;6.57;;;7.30;99.90;;;;;;5010577;28;20106;-74
2021/01/29 14:05:22;;;;;;;22.45;8.32;;;7.30;99.90;;;;;;5048363;28;20052;-71
2021/01/29 14:07:49;;;;;;;27.60;8.13;;;7.30;99.90;;;;;;5049944;28;20130;-73
2021/01/29 14:10:21;;;;;;;20.30;6.43;;;7.40;99.90;;;;;;5019905;28;20065;-73
2021/01/29 14:13:24;;;;;;;35.30;8.60;;;7.40;99.90;;;;;;5007329;28;20510;-73
2021/01/29 14:15:56;;;;;;;22.90;7.60;;;7.40;99.90;;;;;;5025705;28;20041;-72
2021/01/29 14:18:50;;;;;;;31.73;8.10;;;7.40;99.90;;;;;;5027605;28;20125;-73
2021/01/29 14:21:26;;;;;;;37.92;10.48;;;7.40;99.90;;;;;;5011001;28;20069;-73
2021/01/29 14:24:05;;;;;;;25.23;8.32;;;7.40;99.90;;;;;;5039880;28;20531;-73